Time;durP1;ratioP1;P1;durP2;ratioP2;P2;SDS_P1;SDS_P2;PMS_P1;PMS_P2;Temp;Humidity;BMP_temperature;BMP_pressure;BME280_temperature;BME280_humidity;BME280_pressure;Samples;Min_cycle;Max_cycle;Signal;HPM_P1;HPM_P2
2023/06/27 00:00:46;;;;;;;14.32;8.65;;;20.20;99.90;;;;;;5155667;27;20027;-80
2023/06/27 00:03:12;;;;;;;13.23;7.95;;;20.30;99.90;;;;;;5154956;27;20045;-78
2023/06/27 00:05:38;;;;;;;14.85;8.50;;;20.20;99.90;;;;;;5155623;27;20111;-73
2023/06/27 00:08:06;;;;;;;15.93;8.30;;;20.20;99.90;;;;;;5156241;27;20059;-77
2023/06/27 00:10:33;;;;;;;14.88;8.05;;;20.10;99.90;;;;;;5143163;27;20031;-78
2023/06/27 00:12:59;;;;;;;14.60;8.23;;;20.20;99.90;;;;;;5134141;27;20011;-78
2023/06/27 00:15:27;;;;;;;16.33;9.32;;;20.10;99.90;;;;;;5133076;27;20034;-80
2023/06/27 00:17:53;;;;;;;12.77;8.05;;;20.20;99.90;;;;;;5127040;27;20502;-74
2023/06/27 00:20:19;;;;;;;14.73;8.55;;;20.20;99.90;;;;;;5133433;27;20395;-74
2023/06/27 00:22:48;;;;;;;15.10;8.68;;;20.10;99.90;;;;;;5128345;27;20065;-79
2023/06/27 00:25:14;;;;;;;13.93;8.40;;;20.10;99.90;;;;;;5133426;27;20015;-79
2023/06/27 00:27:40;;;;;;;12.80;8.13;;;20.10;99.90;;;;;;5133012;27;20106;-75
2023/06/27 00:30:07;;;;;;;19.23;9.30;;;20.10;99.90;;;;;;5131986;27;20502;-74
2023/06/27 00:32:32;;;;;;;13.25;7.68;;;20.10;99.90;;;;;;5132392;27;20435;-78
2023/06/27 00:34:58;;;;;;;14.75;8.98;;;20.10;99.90;;;;;;5131990;27;20023;-80
2023/06/27 00:37:24;;;;;;;12.75;7.45;;;20.00;99.90;;;;;;5131672;27;20122;-79
2023/06/27 00:39:50;;;;;;;14.93;8.80;;;20.00;99.90;;;;;;5133426;27;20548;-79
2023/06/27 00:42:17;;;;;;;15.90;7.95;;;19.90;99.90;;;;;;5133044;27;20087;-78
2023/06/27 00:44:42;;;;;;;12.15;8.20;;;19.90;99.90;;;;;;5116146;27;20055;-76
2023/06/27 00:47:10;;;;;;;15.60;8.20;;;19.90;99.90;;;;;;5131249;27;20041;-79
2023/06/27 00:49:36;;;;;;;18.13;8.65;;;19.80;99.90;;;;;;5130128;27;20070;-79
2023/06/27 00:52:02;;;;;;;11.60;7.80;;;19.80;99.90;;;;;;5132961;27;20094;-75
2023/06/27 00:54:29;;;;;;;16.08;8.02;;;19.80;99.90;;;;;;5130539;27;20031;-79
2023/06/27 00:56:55;;;;;;;14.68;8.50;;;19.80;99.90;;;;;;5132841;27;20049;-75
2023/06/27 00:59:22;;;;;;;17.13;8.60;;;19.70;99.90;;;;;;5132801;27;20038;-80
2023/06/27 01:01:49;;;;;;;15.85;9.15;;;19.70;99.90;;;;;;5133386;27;20015;-80
2023/06/27 01:04:15;;;;;;;12.20;8.23;;;19.70;99.90;;;;;;5132669;27;20540;-74
2023/06/27 01:06:59;;;;;;;17.25;8.25;;;19.70;99.90;;;;;;5129092;27;20019;-79
2023/06/27 01:09:39;;;;;;;14.13;8.73;;;19.70;99.90;;;;;;5132425;27;20476;-76
2023/06/27 01:12:20;;;;;;;15.50;8.18;;;19.70;99.90;;;;;;5130653;27;20023;-74
2023/06/27 01:14:48;;;;;;;13.23;7.88;;;19.60;99.90;;;;;;5132318;27;20434;-79
2023/06/27 01:17:16;;;;;;;18.58;8.27;;;19.60;99.90;;;;;;5131408;27;20023;-77
2023/06/27 01:19:44;;;;;;;19.92;8.45;;;19.70;99.90;;;;;;5131163;27;20032;-79
2023/06/27 01:22:16;;;;;;;14.80;7.75;;;19.70;99.90;;;;;;5132457;27;20019;-77
2023/06/27 01:24:43;;;;;;;13.90;8.25;;;19.60;99.90;;;;;;5132078;27;20027;-77
2023/06/27 01:27:13;;;;;;;13.95;8.18;;;19.60;99.90;;;;;;5131290;27;20079;-80
2023/06/27 01:29:42;;;;;;;16.63;9.20;;;19.50;99.90;;;;;;5132086;27;20042;-80
2023/06/27 01:32:27;;;;;;;13.50;8.10;;;19.50;99.90;;;;;;5131130;27;20016;-80
2023/06/27 01:35:15;;;;;;;18.65;8.93;;;19.50;99.90;;;;;;5130952;27;20035;-76
2023/06/27 01:37:53;;;;;;;12.60;7.63;;;19.60;99.90;;;;;;5126103;27;20031;-79
2023/06/27 01:40:21;;;;;;;13.27;7.38;;;19.50;99.90;;;;;;5128086;27;20035;-78
2023/06/27 01:42:53;;;;;;;15.00;8.57;;;19.50;99.90;;;;;;5132124;27;20095;-79
2023/06/27 01:45:20;;;;;;;15.73;8.70;;;19.60;99.90;;;;;;5134013;27;20046;-78
2023/06/27 01:47:46;;;;;;;14.23;8.35;;;19.60;99.90;;;;;;5130065;27;20028;-78
2023/06/27 01:50:13;;;;;;;13.23;7.68;;;19.60;99.90;;;;;;5131996;27;20387;-80
2023/06/27 01:52:40;;;;;;;15.00;7.82;;;19.50;99.90;;;;;;5130791;27;21055;-78
2023/06/27 01:55:06;;;;;;;12.10;7.85;;;19.50;99.90;;;;;;5130581;27;20050;-75
2023/06/27 01:57:33;;;;;;;19.42;8.55;;;19.50;99.90;;;;;;5130293;27;20065;-77
2023/06/27 01:59:59;;;;;;;13.45;7.95;;;19.50;99.90;;;;;;5130142;27;20019;-79
2023/06/27 02:02:25;;;;;;;12.90;7.68;;;19.40;99.90;;;;;;5131548;27;20067;-79
2023/06/27 02:04:51;;;;;;;14.73;8.35;;;19.40;99.90;;;;;;5129877;27;20029;-77
2023/06/27 02:07:18;;;;;;;15.27;7.88;;;19.50;99.90;;;;;;5130930;27;20023;-77
2023/06/27 02:09:44;;;;;;;14.05;8.32;;;19.50;99.90;;;;;;5127550;27;20042;-79
2023/06/27 02:12:11;;;;;;;12.80;7.45;;;19.40;99.90;;;;;;5130766;27;20376;-79
2023/06/27 02:14:38;;;;;;;15.57;8.23;;;19.40;99.90;;;;;;5129163;27;20027;-78
2023/06/27 02:17:05;;;;;;;16.73;7.97;;;19.40;99.90;;;;;;5129569;27;20757;-79
2023/06/27 02:19:31;;;;;;;14.82;8.38;;;19.40;99.90;;;;;;5129590;27;20403;-79
2023/06/27 02:21:57;;;;;;;15.65;8.38;;;19.40;99.90;;;;;;5129257;27;20027;-78
2023/06/27 02:24:23;;;;;;;14.68;8.02;;;19.40;99.90;;;;;;5129588;27;20031;-79
2023/06/27 02:26:48;;;;;;;10.77;6.95;;;19.40;99.90;;;;;;5130733;27;20015;-79
2023/06/27 02:29:14;;;;;;;17.17;7.72;;;19.50;99.90;;;;;;5130161;27;20100;-79
2023/06/27 02:31:40;;;;;;;16.88;7.40;;;19.40;99.90;;;;;;5113163;27;20026;-79
2023/06/27 02:34:06;;;;;;;13.82;8.00;;;19.40;99.90;;;;;;5109331;28;20027;-74
2023/06/27 02:36:32;;;;;;;19.88;9.05;;;19.40;99.90;;;;;;5110700;28;20023;-77
2023/06/27 02:39:00;;;;;;;11.65;7.20;;;19.30;99.90;;;;;;5125723;27;20428;-79
2023/06/27 02:41:26;;;;;;;14.95;7.50;;;19.30;99.90;;;;;;5123266;27;20039;-78
2023/06/27 02:43:52;;;;;;;15.27;8.30;;;19.30;99.90;;;;;;5129560;27;20046;-80
2023/06/27 02:46:18;;;;;;;16.92;8.20;;;19.30;99.90;;;;;;5129988;27;20015;-79
2023/06/27 02:48:44;;;;;;;15.88;7.82;;;19.30;99.90;;;;;;5131272;27;20544;-78
2023/06/27 02:51:10;;;;;;;15.98;8.25;;;19.20;99.90;;;;;;5131159;27;20015;-77
2023/06/27 02:53:36;;;;;;;16.63;8.32;;;19.30;99.90;;;;;;5129945;27;20027;-75
2023/06/27 02:56:04;;;;;;;13.82;8.23;;;19.30;99.90;;;;;;5129053;27;20114;-78
2023/06/27 02:58:32;;;;;;;13.38;7.10;;;19.30;99.90;;;;;;5129871;27;20031;-78
2023/06/27 03:00:59;;;;;;;13.48;7.55;;;19.20;99.90;;;;;;5129696;27;20022;-77
2023/06/27 03:03:26;;;;;;;16.27;7.85;;;19.30;99.90;;;;;;5129442;27;20041;-73
2023/06/27 03:05:52;;;;;;;13.30;7.72;;;19.30;99.90;;;;;;5129252;27;20028;-79
2023/06/27 03:08:18;;;;;;;14.85;7.93;;;19.30;99.90;;;;;;5112593;27;20054;-78
2023/06/27 03:10:44;;;;;;;12.18;7.60;;;19.40;99.90;;;;;;5129849;27;20023;-78
2023/06/27 03:13:11;;;;;;;13.98;7.78;;;19.40;99.90;;;;;;5112542;27;20486;-79
2023/06/27 03:15:38;;;;;;;12.63;7.18;;;19.50;99.90;;;;;;5129144;27;20073;-76
2023/06/27 03:18:04;;;;;;;14.55;7.30;;;19.50;99.90;;;;;;5129671;27;20490;-80
2023/06/27 03:20:30;;;;;;;13.48;7.20;;;19.50;99.90;;;;;;5142515;27;20037;-73
2023/06/27 03:22:58;;;;;;;17.15;8.38;;;19.50;99.90;;;;;;5129005;27;20019;-76
2023/06/27 03:25:24;;;;;;;11.65;7.90;;;19.60;99.90;;;;;;5129487;27;20034;-80
2023/06/27 03:27:50;;;;;;;14.80;7.18;;;19.60;99.90;;;;;;5129345;27;20118;-80
2023/06/27 03:30:16;;;;;;;13.23;8.48;;;19.60;99.90;;;;;;5129689;27;20023;-75
2023/06/27 03:32:43;;;;;;;12.15;7.75;;;19.70;99.90;;;;;;5128742;27;20031;-75
2023/06/27 03:35:09;;;;;;;12.70;7.22;;;19.80;99.90;;;;;;5128775;27;20047;-76
2023/06/27 03:37:35;;;;;;;17.52;7.05;;;19.80;99.90;;;;;;5132682;27;20122;-80
2023/06/27 03:40:03;;;;;;;12.77;7.70;;;19.80;99.90;;;;;;5131407;27;20043;-76
2023/06/27 03:42:28;;;;;;;14.82;8.23;;;19.90;99.90;;;;;;5132873;27;20027;-80
2023/06/27 03:44:54;;;;;;;16.20;8.57;;;20.10;99.90;;;;;;5136038;27;20031;-79
2023/06/27 03:47:21;;;;;;;15.80;8.85;;;21.10;99.90;;;;;;5133777;27;20080;-74
2023/06/27 03:49:47;;;;;;;13.38;7.82;;;21.80;99.90;;;;;;5134086;27;20114;-78
2023/06/27 03:52:13;;;;;;;15.50;7.65;;;22.60;99.90;;;;;;5133681;27;20131;-75
2023/06/27 03:54:39;;;;;;;15.77;7.45;;;23.40;99.90;;;;;;5133172;27;20027;-80
2023/06/27 03:57:05;;;;;;;17.00;7.78;;;23.90;99.90;;;;;;5152496;27;20039;-80
2023/06/27 03:59:31;;;;;;;13.23;7.70;;;24.60;99.90;;;;;;5134842;27;20024;-80
2023/06/27 04:01:57;;;;;;;17.70;11.70;;;25.10;99.80;;;;;;5123644;27;20019;-82
2023/06/27 04:04:22;;;;;;;20.90;13.70;;;25.80;98.40;;;;;;5120514;27;20023;-77
2023/06/27 04:06:48;;;;;;;18.77;12.18;;;26.40;95.70;;;;;;5134048;27;20072;-81
2023/06/27 04:09:14;;;;;;;15.35;10.57;;;27.00;94.20;;;;;;5151047;27;20069;-80
2023/06/27 04:11:40;;;;;;;17.08;9.98;;;27.30;93.30;;;;;;5154064;27;20055;-80
2023/06/27 04:14:05;;;;;;;19.20;9.98;;;27.70;91.90;;;;;;5152321;27;20026;-80
2023/06/27 04:16:31;;;;;;;22.10;8.00;;;28.30;90.70;;;;;;5145712;27;20025;-80
2023/06/27 04:18:57;;;;;;;14.38;7.65;;;28.60;89.80;;;;;;5153807;27;20026;-81
2023/06/27 04:21:23;;;;;;;15.55;8.68;;;29.10;88.60;;;;;;5137273;27;20521;-75
2023/06/27 04:23:54;;;;;;;13.80;7.85;;;29.60;86.10;;;;;;5154226;27;20031;-76
2023/06/27 04:26:20;;;;;;;16.58;7.70;;;29.90;84.30;;;;;;5137233;27;20121;-80
2023/06/27 04:28:49;;;;;;;18.20;8.38;;;30.00;84.10;;;;;;5150927;27;20087;-79
2023/06/27 04:31:15;;;;;;;13.38;7.43;;;29.70;84.40;;;;;;5144242;27;20058;-75
2023/06/27 04:33:41;;;;;;;14.23;7.63;;;30.40;82.70;;;;;;5148796;27;20049;-80
2023/06/27 04:36:10;;;;;;;19.17;7.45;;;31.00;81.60;;;;;;5139279;27;20075;-80
2023/06/27 04:38:40;;;;;;;13.20;7.75;;;31.70;80.40;;;;;;5144853;27;20434;-79
2023/06/27 04:41:07;;;;;;;12.43;7.68;;;32.00;81.50;;;;;;5135076;27;20467;-79
2023/06/27 04:43:34;;;;;;;15.13;7.53;;;32.10;77.40;;;;;;5147932;27;20019;-80
2023/06/27 04:46:01;;;;;;;14.35;7.38;;;31.40;78.30;;;;;;5150483;27;20026;-81
2023/06/27 04:48:28;;;;;;;15.35;7.45;;;31.50;78.20;;;;;;5128878;27;20043;-80
2023/06/27 04:50:54;;;;;;;15.07;7.65;;;32.00;78.00;;;;;;5155110;27;20046;-76
2023/06/27 04:53:21;;;;;;;14.32;6.60;;;31.20;77.90;;;;;;5144324;27;20020;-76
2023/06/27 04:55:50;;;;;;;12.63;6.65;;;31.90;77.70;;;;;;5126218;27;20019;-78
2023/06/27 04:58:16;;;;;;;13.57;6.55;;;32.00;78.90;;;;;;5144084;27;20020;-79
2023/06/27 05:00:44;;;;;;;20.52;7.57;;;30.70;78.10;;;;;;5141925;27;20258;-80
2023/06/27 05:03:10;;;;;;;14.45;7.45;;;29.90;79.40;;;;;;5139809;27;20021;-80
2023/06/27 05:05:36;;;;;;;14.02;6.50;;;29.20;84.60;;;;;;5154565;27;20551;-79
2023/06/27 05:08:03;;;;;;;13.98;7.18;;;;;;;;;;5134979;27;20550;-79
2023/06/27 05:10:33;;;;;;;12.50;7.20;;;27.70;93.30;;;;;;5137751;27;20035;-80
2023/06/27 05:13:00;;;;;;;10.57;6.50;;;27.50;96.80;;;;;;5130967;27;20022;-80
2023/06/27 05:15:26;;;;;;;12.93;6.65;;;;;;;;;;5146068;27;20499;-81
2023/06/27 05:18:14;;;;;;;15.15;7.35;;;27.00;88.40;;;;;;5138200;27;20019;-81
2023/06/27 05:20:43;;;;;;;10.95;6.50;;;26.80;90.90;;;;;;5142768;27;20492;-81
2023/06/27 05:23:10;;;;;;;14.20;8.05;;;26.80;91.30;;;;;;5138956;27;20027;-81
2023/06/27 05:25:36;;;;;;;12.70;6.90;;;26.80;91.80;;;;;;5134667;27;20118;-76
2023/06/27 05:28:03;;;;;;;14.15;7.07;;;26.80;92.70;;;;;;5142975;27;20015;-80
2023/06/27 05:30:29;;;;;;;14.00;7.20;;;27.00;92.50;;;;;;5134363;27;20023;-80
2023/06/27 05:32:55;;;;;;;16.25;7.32;;;26.60;92.70;;;;;;5132899;27;20035;-81
2023/06/27 05:35:22;;;;;;;17.27;7.20;;;26.80;92.80;;;;;;5128840;27;20022;-74
2023/06/27 05:37:48;;;;;;;11.32;7.22;;;26.50;92.60;;;;;;5136188;27;20115;-74
2023/06/27 05:40:13;;;;;;;12.15;7.30;;;26.40;94.20;;;;;;5127985;27;20183;-75
2023/06/27 05:42:40;;;;;;;11.50;6.68;;;26.60;94.60;;;;;;5137430;27;20075;-80
2023/06/27 05:45:07;;;;;;;13.25;7.38;;;26.60;96.00;;;;;;5144020;27;20029;-74
2023/06/27 05:47:33;;;;;;;11.57;6.68;;;26.80;96.00;;;;;;5153013;27;20031;-75
2023/06/27 05:49:59;;;;;;;16.75;6.68;;;27.10;94.60;;;;;;5153965;27;20037;-81
2023/06/27 05:52:25;;;;;;;12.57;6.55;;;27.00;93.80;;;;;;5143431;27;20027;-78
2023/06/27 05:54:51;;;;;;;10.60;6.60;;;26.90;93.40;;;;;;5132712;27;20055;-78
2023/06/27 05:57:18;;;;;;;11.20;7.38;;;27.00;93.60;;;;;;5145158;27;20087;-74
2023/06/27 05:59:44;;;;;;;11.93;7.07;;;27.00;93.60;;;;;;5144101;27;20026;-78
2023/06/27 06:02:10;;;;;;;11.82;6.75;;;27.00;94.00;;;;;;5134402;27;20035;-77
2023/06/27 06:04:36;;;;;;;12.95;6.50;;;26.90;93.80;;;;;;5148247;27;20390;-75
2023/06/27 06:07:03;;;;;;;9.95;6.25;;;27.00;92.90;;;;;;5142575;27;20027;-77
2023/06/27 06:09:30;;;;;;;10.60;6.55;;;26.80;93.30;;;;;;5136789;27;20434;-77
2023/06/27 06:11:56;;;;;;;10.57;6.55;;;26.90;95.10;;;;;;5136575;27;20034;-79
2023/06/27 06:14:22;;;;;;;9.73;5.85;;;26.80;92.50;;;;;;5154697;27;20053;-76
2023/06/27 06:16:48;;;;;;;13.05;7.63;;;26.90;95.10;;;;;;5137032;27;20028;-78
2023/06/27 06:19:15;;;;;;;10.23;5.88;;;27.10;93.50;;;;;;5134106;27;20023;-73
2023/06/27 06:21:41;;;;;;;11.90;6.20;;;;;;;;;;5133055;27;20039;-78
2023/06/27 06:24:10;;;;;;;11.88;6.38;;;27.30;92.90;;;;;;5131080;27;20030;-75
2023/06/27 06:26:37;;;;;;;12.65;6.43;;;27.00;93.30;;;;;;5131447;27;20034;-77
2023/06/27 06:29:12;;;;;;;10.73;5.68;;;27.20;92.10;;;;;;5129241;27;20039;-77
2023/06/27 06:31:40;;;;;;;10.73;6.15;;;27.30;92.40;;;;;;5125822;27;20376;-74
2023/06/27 06:34:06;;;;;;;12.18;6.65;;;27.30;91.30;;;;;;5128882;28;20495;-74
2023/06/27 06:36:32;;;;;;;9.77;5.78;;;27.30;91.70;;;;;;5121489;28;20403;-78
2023/06/27 06:38:58;;;;;;;10.05;6.55;;;27.30;93.20;;;;;;5133013;27;20043;-77
2023/06/27 06:41:25;;;;;;;12.40;6.63;;;27.70;92.70;;;;;;5136538;27;20015;-78
2023/06/27 06:43:51;;;;;;;10.02;6.35;;;27.70;91.40;;;;;;5140290;27;20019;-77
2023/06/27 06:46:17;;;;;;;8.90;5.85;;;27.70;92.20;;;;;;5154265;27;20040;-76
2023/06/27 06:48:43;;;;;;;11.73;6.13;;;27.70;91.80;;;;;;5153817;27;20046;-73
2023/06/27 06:51:09;;;;;;;13.32;6.45;;;27.60;91.50;;;;;;5154998;27;20474;-77
2023/06/27 06:53:35;;;;;;;10.05;5.97;;;27.70;91.00;;;;;;5149346;27;20079;-77
2023/06/27 06:56:00;;;;;;;13.13;7.03;;;27.70;92.10;;;;;;5154513;27;20101;-78
2023/06/27 06:58:26;;;;;;;16.83;6.68;;;28.00;92.10;;;;;;5146614;27;20031;-79
2023/06/27 07:00:52;;;;;;;11.48;6.30;;;28.20;91.40;;;;;;5142301;27;20118;-79
2023/06/27 07:03:21;;;;;;;13.00;5.95;;;28.30;91.80;;;;;;5148915;27;20031;-74
2023/06/27 07:05:46;;;;;;;14.43;6.32;;;28.20;90.90;;;;;;5152480;27;20026;-79
2023/06/27 07:08:13;;;;;;;13.35;6.78;;;28.10;90.80;;;;;;5141635;27;20441;-79
2023/06/27 07:10:39;;;;;;;15.73;5.90;;;28.30;90.30;;;;;;5137877;27;20027;-77
2023/06/27 07:13:05;;;;;;;13.85;7.03;;;28.10;91.50;;;;;;5153633;27;20065;-77
2023/06/27 07:15:32;;;;;;;14.20;6.88;;;28.40;91.00;;;;;;5137156;27;20023;-79
2023/06/27 07:17:59;;;;;;;16.52;6.20;;;28.30;90.70;;;;;;5135224;27;20015;-75
2023/06/27 07:20:25;;;;;;;8.55;4.65;;;28.30;91.10;;;;;;5141630;27;20006;-77
2023/06/27 07:22:51;;;;;;;15.32;6.78;;;28.50;90.90;;;;;;5140633;27;20493;-78
2023/06/27 07:25:18;;;;;;;13.82;6.93;;;28.70;91.20;;;;;;5137105;27;20047;-73
2023/06/27 07:27:45;;;;;;;15.25;6.07;;;28.90;89.90;;;;;;5134074;27;20027;-76
2023/06/27 07:30:12;;;;;;;11.30;6.07;;;28.80;90.30;;;;;;5153220;27;20023;-73
2023/06/27 07:32:38;;;;;;;15.27;6.65;;;29.00;90.40;;;;;;5134264;27;20054;-77
2023/06/27 07:35:05;;;;;;;8.98;5.85;;;29.30;90.90;;;;;;5143955;27;20441;-77
2023/06/27 07:37:31;;;;;;;10.65;5.82;;;29.60;89.70;;;;;;5135365;27;20016;-78
2023/06/27 07:40:07;;;;;;;12.18;6.85;;;29.10;90.60;;;;;;5139545;27;20042;-75
2023/06/27 07:42:34;;;;;;;11.02;6.60;;;29.40;88.20;;;;;;5138135;27;20102;-75
2023/06/27 07:45:00;;;;;;;15.57;6.35;;;29.70;90.00;;;;;;5152857;27;20109;-77
2023/06/27 07:47:26;;;;;;;9.52;5.38;;;30.00;89.40;;;;;;5138874;27;20011;-77
2023/06/27 07:49:52;;;;;;;10.55;5.80;;;30.10;89.50;;;;;;5133222;27;20031;-76
2023/06/27 07:52:18;;;;;;;11.20;6.05;;;30.00;87.60;;;;;;5135294;27;20019;-78
2023/06/27 07:54:44;;;;;;;10.25;5.38;;;29.80;88.40;;;;;;5134908;27;20076;-76
2023/06/27 07:57:10;;;;;;;10.68;6.30;;;29.80;87.40;;;;;;5136650;27;20034;-79
2023/06/27 07:59:35;;;;;;;8.95;5.72;;;29.60;83.50;;;;;;5132414;27;20399;-78
2023/06/27 08:02:01;;;;;;;10.90;6.13;;;29.30;86.80;;;;;;5137380;27;20027;-78
2023/06/27 08:04:27;;;;;;;11.63;5.63;;;29.40;86.20;;;;;;5148524;27;20023;-74
2023/06/27 08:06:53;;;;;;;31.08;6.72;;;29.50;85.60;;;;;;5135835;27;20131;-78
2023/06/27 08:09:20;;;;;;;13.40;6.20;;;29.80;88.50;;;;;;5134987;27;20030;-74
2023/06/27 08:11:46;;;;;;;11.57;6.03;;;30.00;85.40;;;;;;5135158;27;20024;-73
2023/06/27 08:14:12;;;;;;;9.23;4.63;;;29.90;88.60;;;;;;5138882;27;20396;-78
2023/06/27 08:16:38;;;;;;;8.10;5.03;;;29.90;85.60;;;;;;5145532;27;20018;-81
2023/06/27 08:19:04;;;;;;;11.88;5.68;;;29.90;85.00;;;;;;5155891;27;20031;-81
2023/06/27 08:21:30;;;;;;;9.85;4.88;;;30.00;85.70;;;;;;5155063;27;20019;-78
2023/06/27 08:23:55;;;;;;;10.35;4.50;;;30.10;82.20;;;;;;5155420;27;20018;-81
2023/06/27 08:26:21;;;;;;;16.13;6.03;;;30.10;85.60;;;;;;5155744;27;20163;-81
2023/06/27 08:28:47;;;;;;;10.60;4.78;;;30.20;87.40;;;;;;5140548;27;20076;-78
2023/06/27 08:31:13;;;;;;;10.38;5.85;;;30.30;83.30;;;;;;5155470;27;20496;-81
2023/06/27 08:33:39;;;;;;;15.40;5.88;;;30.30;85.00;;;;;;5155477;27;20031;-82
2023/06/27 08:36:06;;;;;;;7.72;5.15;;;30.40;84.70;;;;;;5155385;27;20025;-79
2023/06/27 08:38:32;;;;;;;10.18;4.68;;;;;;;;;;5154314;27;20039;-80
2023/06/27 08:41:00;;;;;;;9.23;5.10;;;30.70;79.50;;;;;;5155250;27;20053;-76
2023/06/27 08:43:26;;;;;;;10.32;5.50;;;30.60;82.80;;;;;;5155550;27;20405;-75
2023/06/27 08:45:57;;;;;;;12.50;5.45;;;30.60;80.00;;;;;;5155311;27;20116;-76
2023/06/27 08:48:24;;;;;;;8.35;5.45;;;30.20;82.30;;;;;;5155807;27;20045;-77
2023/06/27 08:50:56;;;;;;;7.57;3.90;;;30.40;83.20;;;;;;5154962;27;20022;-74
2023/06/27 08:53:23;;;;;;;10.25;4.38;;;30.30;81.30;;;;;;5155247;27;20034;-76
2023/06/27 08:56:10;;;;;;;5.25;3.67;;;30.30;78.40;;;;;;5155379;27;20098;-80
2023/06/27 08:58:46;;;;;;;9.77;3.83;;;30.20;78.00;;;;;;5154764;27;20126;-80
2023/06/27 09:01:12;;;;;;;8.52;4.50;;;30.20;78.60;;;;;;5155078;27;20023;-80
2023/06/27 09:03:38;;;;;;;9.63;4.88;;;30.10;79.60;;;;;;5154256;27;20467;-79
2023/06/27 09:06:06;;;;;;;6.95;4.18;;;30.20;79.80;;;;;;5154688;27;20075;-78
2023/06/27 09:08:36;;;;;;;8.13;4.72;;;30.00;80.10;;;;;;5154729;27;20023;-79
2023/06/27 09:11:08;;;;;;;9.77;4.22;;;;;;;;;;5145462;27;20070;-79
2023/06/27 09:13:36;;;;;;;8.25;4.68;;;30.30;82.40;;;;;;5127257;27;20030;-75
2023/06/27 09:16:06;;;;;;;8.80;4.38;;;30.10;77.60;;;;;;5154949;27;20470;-80
2023/06/27 09:18:35;;;;;;;7.88;4.00;;;30.30;82.20;;;;;;5152856;27;20042;-82
2023/06/27 09:21:01;;;;;;;11.75;4.47;;;30.30;82.50;;;;;;5154270;27;20423;-73
2023/06/27 09:23:30;;;;;;;9.10;3.80;;;30.20;81.20;;;;;;5148881;27;20459;-73
2023/06/27 09:26:12;;;;;;;7.47;4.45;;;30.10;77.30;;;;;;5121157;27;20023;-80
2023/06/27 09:28:50;;;;;;;6.10;3.75;;;30.20;75.80;;;;;;5134852;27;20015;-78
2023/06/27 09:31:21;;;;;;;7.43;3.70;;;30.40;76.00;;;;;;5128681;27;20030;-78
2023/06/27 09:33:48;;;;;;;7.38;4.07;;;30.40;75.80;;;;;;5133465;27;20383;-76
2023/06/27 09:36:31;;;;;;;6.70;4.07;;;30.30;76.50;;;;;;5115181;27;20473;-78
2023/06/27 09:39:03;;;;;;;9.43;4.28;;;29.90;77.20;;;;;;5132998;27;20051;-78
2023/06/27 09:41:44;;;;;;;7.85;3.63;;;30.00;79.10;;;;;;5141922;27;20050;-75
2023/06/27 09:44:21;;;;;;;5.43;3.57;;;30.20;79.10;;;;;;5148833;27;20395;-75
2023/06/27 09:46:54;;;;;;;6.53;4.18;;;30.30;77.00;;;;;;5138187;27;20267;-77
2023/06/27 09:49:22;;;;;;;5.78;3.60;;;30.50;75.80;;;;;;5135508;27;20026;-81
2023/06/27 09:51:53;;;;;;;7.03;3.67;;;30.60;77.50;;;;;;5135495;27;20389;-74
2023/06/27 09:54:22;;;;;;;11.68;3.70;;;30.50;75.30;;;;;;5133848;27;20027;-78
2023/06/27 09:56:52;;;;;;;4.93;3.38;;;30.80;76.30;;;;;;5142058;27;20371;-79
2023/06/27 09:59:21;;;;;;;12.65;3.63;;;30.80;74.30;;;;;;5133246;27;20134;-75
2023/06/27 10:01:49;;;;;;;11.02;3.92;;;30.80;75.40;;;;;;5128226;27;20042;-79
2023/06/27 10:04:15;;;;;;;6.70;3.50;;;30.90;74.00;;;;;;5135215;27;20027;-77
2023/06/27 10:06:42;;;;;;;9.50;3.88;;;30.60;73.90;;;;;;5143711;27;20042;-78
2023/06/27 10:09:08;;;;;;;6.15;2.78;;;30.60;73.80;;;;;;5124909;27;20103;-79
2023/06/27 10:11:35;;;;;;;8.32;3.40;;;30.40;72.00;;;;;;5144751;27;20387;-73
2023/06/27 10:14:01;;;;;;;5.28;3.30;;;30.40;73.50;;;;;;5133858;27;20027;-81
2023/06/27 10:16:30;;;;;;;6.43;3.17;;;30.50;71.50;;;;;;5146754;27;20395;-79
2023/06/27 10:18:56;;;;;;;4.78;3.35;;;30.70;73.60;;;;;;5127612;27;20029;-77
2023/06/27 10:21:26;;;;;;;7.68;3.85;;;30.70;74.00;;;;;;5154474;27;20030;-78
2023/06/27 10:23:58;;;;;;;4.13;3.37;;;31.00;76.20;;;;;;5148454;27;20011;-80
2023/06/27 10:26:28;;;;;;;5.55;3.63;;;30.70;73.80;;;;;;5149441;27;20387;-78
2023/06/27 10:28:54;;;;;;;10.07;4.35;;;30.20;72.70;;;;;;5153991;27;20054;-79
2023/06/27 10:31:45;;;;;;;7.22;3.67;;;30.30;74.10;;;;;;5143003;27;20376;-75
2023/06/27 10:34:20;;;;;;;5.35;3.53;;;30.30;75.90;;;;;;5121569;28;20034;-79
2023/06/27 10:37:04;;;;;;;7.07;3.40;;;30.60;77.30;;;;;;5133839;28;20433;-80
2023/06/27 10:39:36;;;;;;;9.25;3.40;;;30.30;73.50;;;;;;5132696;27;20125;-77
2023/06/27 10:42:06;;;;;;;7.07;3.45;;;30.30;75.10;;;;;;5135638;27;20027;-80
2023/06/27 10:44:35;;;;;;;6.55;3.65;;;30.40;74.40;;;;;;5150904;27;20049;-79
2023/06/27 10:47:29;;;;;;;8.20;4.10;;;30.50;75.30;;;;;;5148940;27;20105;-72
2023/06/27 10:50:03;;;;;;;5.10;3.03;;;30.70;73.20;;;;;;5155288;27;20054;-74
2023/06/27 10:52:29;;;;;;;5.07;3.33;;;30.90;73.70;;;;;;5142940;27;20361;-80
2023/06/27 10:55:14;;;;;;;6.78;3.65;;;30.90;73.10;;;;;;5152340;27;20034;-73
2023/06/27 10:57:43;;;;;;;6.53;3.83;;;31.10;73.30;;;;;;5157255;27;20029;-77
2023/06/27 11:00:22;;;;;;;5.30;3.40;;;30.90;73.60;;;;;;5158257;27;20030;-81
2023/06/27 11:02:49;;;;;;;6.90;3.22;;;30.50;73.20;;;;;;5133324;27;20495;-77
2023/06/27 11:05:19;;;;;;;7.72;3.78;;;30.50;73.20;;;;;;5156803;27;20022;-73
2023/06/27 11:07:58;;;;;;;7.15;4.20;;;30.80;72.90;;;;;;5135926;27;20031;-79
2023/06/27 11:10:26;;;;;;;6.88;3.53;;;30.80;71.70;;;;;;5140423;27;20024;-73
2023/06/27 11:13:14;;;;;;;9.77;4.07;;;31.00;72.00;;;;;;5142045;27;20467;-79
2023/06/27 11:15:45;;;;;;;7.63;3.88;;;31.10;73.70;;;;;;5158060;27;20018;-77
2023/06/27 11:18:18;;;;;;;6.57;3.92;;;31.00;72.30;;;;;;5158280;27;20075;-74
2023/06/27 11:20:45;;;;;;;9.88;3.58;;;31.00;72.20;;;;;;5157522;27;20061;-73
2023/06/27 11:23:15;;;;;;;7.43;3.53;;;31.20;72.20;;;;;;5155040;27;20027;-77
2023/06/27 11:25:43;;;;;;;5.07;4.15;;;31.10;71.20;;;;;;5140024;27;20517;-73
2023/06/27 11:28:11;;;;;;;7.18;3.90;;;31.20;72.60;;;;;;5158036;27;20030;-77
2023/06/27 11:30:38;;;;;;;4.75;3.35;;;31.10;75.00;;;;;;5157779;27;20487;-80
2023/06/27 11:33:04;;;;;;;8.38;3.92;;;31.00;72.30;;;;;;5157523;27;20019;-76
2023/06/27 11:35:31;;;;;;;6.75;3.85;;;31.10;72.70;;;;;;5157747;27;20144;-76
2023/06/27 11:37:59;;;;;;;9.40;4.53;;;31.20;72.60;;;;;;5157526;27;20475;-75
2023/06/27 11:40:26;;;;;;;7.88;4.78;;;31.20;71.60;;;;;;5143191;27;20070;-75
2023/06/27 11:43:02;;;;;;;10.13;4.88;;;31.20;74.40;;;;;;5157383;27;20023;-76
2023/06/27 11:45:29;;;;;;;6.80;3.92;;;31.20;73.70;;;;;;5157322;27;20027;-76
2023/06/27 11:47:55;;;;;;;5.90;4.05;;;31.30;73.70;;;;;;5157140;27;20023;-74
2023/06/27 11:50:21;;;;;;;11.30;4.70;;;31.10;74.30;;;;;;5157519;27;20101;-76
2023/06/27 11:52:47;;;;;;;6.35;4.47;;;31.20;74.00;;;;;;5157409;27;20068;-74
2023/06/27 11:55:13;;;;;;;9.55;4.10;;;31.30;74.80;;;;;;5141766;27;20027;-74
2023/06/27 11:58:00;;;;;;;8.10;4.22;;;31.40;74.70;;;;;;5150634;27;20050;-76
2023/06/27 12:00:28;;;;;;;14.20;4.55;;;31.50;75.10;;;;;;5156593;27;20506;-74
2023/06/27 12:02:56;;;;;;;6.60;4.13;;;31.50;73.80;;;;;;5156105;27;20023;-79
2023/06/27 12:05:24;;;;;;;10.38;4.53;;;31.60;75.90;;;;;;5156396;27;20031;-77
2023/06/27 12:08:03;;;;;;;6.82;4.22;;;31.80;74.70;;;;;;5154018;27;20391;-81
2023/06/27 12:10:31;;;;;;;9.40;4.35;;;31.60;73.40;;;;;;5156148;27;20019;-74
2023/06/27 12:12:57;;;;;;;7.63;4.22;;;31.60;74.30;;;;;;5156258;27;20022;-80
2023/06/27 12:15:23;;;;;;;9.80;5.32;;;31.40;73.60;;;;;;5140080;27;20079;-73
2023/06/27 12:18:02;;;;;;;6.25;4.05;;;31.50;74.50;;;;;;5154485;27;20041;-77
2023/06/27 12:20:42;;;;;;;7.45;4.80;;;31.40;74.70;;;;;;5155807;27;20031;-75
2023/06/27 12:23:10;;;;;;;20.17;7.55;;;31.50;74.40;;;;;;5154165;27;20026;-77
2023/06/27 12:25:39;;;;;;;9.20;4.90;;;31.60;74.80;;;;;;5155858;27;20034;-81
2023/06/27 12:28:06;;;;;;;6.00;4.07;;;31.40;75.80;;;;;;5154651;27;20418;-73
2023/06/27 12:30:32;;;;;;;5.97;4.10;;;31.60;73.10;;;;;;5154590;27;20072;-72
2023/06/27 12:32:58;;;;;;;7.50;3.80;;;31.60;75.10;;;;;;5155707;27;20414;-77
2023/06/27 12:35:24;;;;;;;6.72;4.32;;;31.40;72.40;;;;;;5136844;27;20425;-73
2023/06/27 12:37:50;;;;;;;9.27;4.55;;;31.50;73.50;;;;;;5155428;27;20030;-75
2023/06/27 12:40:16;;;;;;;10.88;5.40;;;31.40;73.60;;;;;;5155124;27;20103;-79
2023/06/27 12:42:45;;;;;;;8.02;4.47;;;31.30;77.80;;;;;;5155968;27;20031;-75
2023/06/27 12:45:11;;;;;;;8.85;5.13;;;31.20;76.90;;;;;;5155346;27;20476;-78